createdAt,value
2016-06-03T00:00:20.513Z,59.18
2016-06-03T00:01:20.531Z,59.28
2016-06-03T00:02:20.534Z,59.08
2016-06-03T00:03:20.537Z,58.89
2016-06-03T00:04:20.554Z,58.89
2016-06-03T00:05:20.556Z,59.08
2016-06-03T00:06:20.559Z,59.38
2016-06-03T00:07:20.578Z,59.18
2016-06-03T00:08:20.581Z,58.8
2016-06-03T00:09:20.599Z,58.7
2016-06-03T00:10:20.602Z,59.38
2016-06-03T00:11:20.619Z,58.98
2016-06-03T00:12:20.639Z,58.89
2016-06-03T00:13:20.641Z,58.98
2016-06-03T00:14:20.644Z,58.89
2016-06-03T00:15:20.662Z,59.08
2016-06-03T00:16:20.664Z,58.8
2016-06-03T00:17:20.683Z,58.8
2016-06-03T00:18:20.686Z,58.89
2016-06-03T00:19:20.689Z,58.8
2016-06-03T00:20:20.708Z,59.38
2016-06-03T00:21:20.724Z,59.08
2016-06-03T00:22:20.728Z,58.8
2016-06-03T00:23:20.746Z,59.38
2016-06-03T00:24:20.749Z,59.38
2016-06-03T00:25:21.517Z,58.7
2016-06-03T00:26:20.770Z,58.8
2016-06-03T00:27:20.773Z,58.8
2016-06-03T00:28:20.775Z,58.89
2016-06-03T00:29:20.794Z,59.08
2016-06-03T00:30:20.812Z,58.7
2016-06-03T00:31:20.814Z,59.18
2016-06-03T00:32:20.818Z,58.89
2016-06-03T00:33:20.835Z,58.89
2016-06-03T00:34:20.854Z,58.89
2016-06-03T00:35:20.856Z,58.89
2016-06-03T00:36:20.875Z,59.38
2016-06-03T00:37:20.893Z,58.8
2016-06-03T00:38:20.880Z,58.89
2016-06-03T00:39:20.898Z,59.08
2016-06-03T00:40:21.573Z,59.08
2016-06-03T00:41:20.920Z,58.7
2016-06-03T00:42:20.923Z,58.7
2016-06-03T00:43:20.941Z,58.89
2016-06-03T00:44:20.943Z,58.98
2016-06-03T00:45:20.946Z,58.6
2016-06-03T00:46:20.964Z,58.7
2016-06-03T00:47:20.982Z,58.7
2016-06-03T00:48:20.986Z,58.7
2016-06-03T00:49:20.988Z,58.98
2016-06-03T00:50:21.006Z,58.7
2016-06-03T00:51:21.008Z,58.7
2016-06-03T00:52:21.043Z,58.6
2016-06-03T00:53:21.046Z,58.98
2016-06-03T00:54:21.048Z,58.6
2016-06-03T00:55:21.363Z,58.8
2016-06-03T00:56:21.069Z,58.7
2016-06-03T00:57:21.072Z,58.7
2016-06-03T00:58:21.075Z,58.6
2016-06-03T00:59:21.093Z,58.7
2016-06-03T01:00:21.095Z,58.6
2016-06-03T01:01:21.114Z,58.6
2016-06-03T01:02:21.132Z,58.7
2016-06-03T01:03:21.135Z,58.6
2016-06-03T01:04:21.137Z,58.6
2016-06-03T01:05:21.156Z,58.67
2016-06-03T01:06:21.159Z,58.7
2016-06-03T01:07:21.177Z,58.7
2016-06-03T01:08:21.180Z,58.5
2016-06-03T01:09:21.198Z,58.5
2016-06-03T01:10:21.232Z,58.7
2016-06-03T01:11:21.219Z,58.8
2016-06-03T01:12:21.237Z,58.7
2016-06-03T01:13:21.239Z,58.6
2016-06-03T01:14:21.242Z,58.6
2016-06-03T01:15:21.261Z,58.5
2016-06-03T01:16:21.264Z,58.7
2016-06-03T01:17:21.266Z,58.8
2016-06-03T01:18:21.269Z,58.67
2016-06-03T01:19:21.288Z,58.7
2016-06-03T01:20:21.149Z,58.6
2016-06-03T01:21:21.308Z,58.6
2016-06-03T01:22:21.327Z,58.67
2016-06-03T01:23:21.330Z,58.47
2016-06-03T01:24:21.347Z,58.7
2016-06-03T01:25:21.350Z,58.6
2016-06-03T01:26:21.353Z,58.7
2016-06-03T01:27:21.387Z,58.6
2016-06-03T01:28:21.374Z,58.67
2016-06-03T01:29:21.392Z,58.57
2016-06-03T01:30:21.395Z,58.5
2016-06-03T01:31:21.413Z,58.57
2016-06-03T01:32:21.416Z,58.89
2016-06-03T01:33:21.434Z,58.6
2016-06-03T01:34:21.437Z,58.7
2016-06-03T01:35:21.456Z,58.6
2016-06-03T01:36:21.458Z,58.57
2016-06-03T01:37:21.461Z,58.57
2016-06-03T01:38:21.479Z,58.57
2016-06-03T01:39:21.481Z,58.76
2016-06-03T01:40:21.501Z,58.7
2016-06-03T01:41:21.503Z,58.57
2016-06-03T01:42:21.520Z,58.67
2016-06-03T01:43:21.539Z,58.6
2016-06-03T01:44:21.386Z,58.67
2016-06-03T01:45:21.545Z,58.57
2016-06-03T01:46:21.578Z,58.57
2016-06-03T01:47:21.566Z,58.67
2016-06-03T01:48:21.569Z,58.57
2016-06-03T01:49:21.586Z,58.67
2016-06-03T01:50:21.589Z,58.57
2016-06-03T01:51:21.608Z,58.6
2016-06-03T01:52:21.611Z,58.6
2016-06-03T01:53:21.614Z,58.67
2016-06-03T01:54:21.646Z,58.57
2016-06-03T01:55:21.805Z,58.57
2016-06-03T01:56:21.652Z,58.57
2016-06-03T01:57:21.655Z,58.67
2016-06-03T01:58:21.673Z,58.8
2016-06-03T01:59:21.691Z,58.67
2016-06-03T02:00:21.694Z,58.67
2016-06-03T02:01:21.697Z,58.57
2016-06-03T02:02:21.699Z,58.7
2016-06-03T02:03:21.719Z,58.7
2016-06-03T02:04:21.737Z,58.57
2016-06-03T02:05:21.754Z,58.57
2016-06-03T02:06:21.757Z,58.7
2016-06-03T02:07:21.760Z,58.57
2016-06-03T02:08:21.778Z,58.67
2016-06-03T02:09:21.782Z,58.7
2016-06-03T02:10:22.550Z,58.57
2016-06-03T02:11:21.803Z,58.7
2016-06-03T02:12:21.805Z,58.8
2016-06-03T02:13:21.823Z,58.6
2016-06-03T02:14:21.826Z,58.7
2016-06-03T02:15:21.845Z,58.7
2016-06-03T02:16:21.847Z,58.57
2016-06-03T02:17:21.865Z,58.8
2016-06-03T02:18:21.867Z,58.57
2016-06-03T02:19:21.886Z,58.76
2016-06-03T02:20:21.905Z,58.7
2016-06-03T02:21:21.907Z,58.6
2016-06-03T02:22:21.910Z,58.7
2016-06-03T02:23:21.913Z,58.57
2016-06-03T02:24:21.930Z,58.8
2016-06-03T02:25:21.949Z,58.7
2016-06-03T02:26:21.952Z,58.6
2016-06-03T02:27:21.954Z,58.7
2016-06-03T02:28:21.973Z,58.7
2016-06-03T02:29:21.976Z,58.47
2016-06-03T02:30:21.979Z,58.76
2016-06-03T02:31:21.997Z,58.76
2016-06-03T02:32:21.999Z,58.67
2016-06-03T02:33:22.018Z,58.7
2016-06-03T02:34:22.021Z,58.8
2016-06-03T02:35:22.039Z,58.67
2016-06-03T02:36:22.057Z,58.7
2016-06-03T02:37:22.060Z,58.7
2016-06-03T02:38:22.062Z,58.76
2016-06-03T02:39:22.081Z,58.76
2016-06-03T02:40:22.771Z,58.67
2016-06-03T02:41:22.086Z,58.76
2016-06-03T02:42:22.104Z,58.67
2016-06-03T02:43:22.107Z,58.47
2016-06-03T02:44:22.125Z,58.57
2016-06-03T02:45:22.128Z,58.67
2016-06-03T02:46:22.147Z,58.57
2016-06-03T02:47:22.165Z,58.76
2016-06-03T02:48:22.167Z,58.47
2016-06-03T02:49:22.169Z,58.47
2016-06-03T02:50:22.172Z,58.76
2016-06-03T02:51:22.191Z,58.57
2016-06-03T02:52:22.194Z,58.76
2016-06-03T02:53:22.055Z,58.67
2016-06-03T02:54:22.214Z,58.47
2016-06-03T02:55:22.702Z,58.47
2016-06-03T02:56:22.236Z,58.67
2016-06-03T02:57:22.254Z,58.67
2016-06-03T02:58:22.257Z,58.76
2016-06-03T02:59:22.275Z,58.67
2016-06-03T03:00:22.278Z,58.67
2016-06-03T03:01:22.280Z,58.86
2016-06-03T03:02:22.283Z,58.57
2016-06-03T03:03:22.301Z,58.57
2016-06-03T03:04:22.320Z,58.67
2016-06-03T03:05:22.166Z,58.67
2016-06-03T03:06:22.340Z,58.7
2016-06-03T03:07:22.344Z,58.76
2016-06-03T03:08:22.346Z,58.67
2016-06-03T03:09:22.364Z,58.76
2016-06-03T03:10:22.382Z,58.86
2016-06-03T03:11:22.385Z,58.57
2016-06-03T03:12:22.404Z,58.57
2016-06-03T03:13:22.407Z,58.47
2016-06-03T03:14:22.425Z,58.67
2016-06-03T03:15:22.428Z,58.57
2016-06-03T03:16:22.430Z,58.67
2016-06-03T03:17:22.433Z,58.67
2016-06-03T03:18:22.451Z,58.67
2016-06-03T03:19:22.453Z,58.76
2016-06-03T03:20:22.472Z,58.47
2016-06-03T03:21:22.474Z,58.47
2016-06-03T03:22:22.494Z,58.47
2016-06-03T03:23:22.497Z,58.47
2016-06-03T03:24:22.514Z,58.47
2016-06-03T03:25:22.548Z,58.47
2016-06-03T03:26:22.536Z,58.28
2016-06-03T03:27:22.538Z,58.57
2016-06-03T03:28:22.571Z,58.47
2016-06-03T03:29:22.574Z,58.57
2016-06-03T03:30:22.577Z,58.47
2016-06-03T03:31:22.579Z,58.28
2016-06-03T03:32:22.599Z,58.57
2016-06-03T03:33:22.601Z,58.57
2016-06-03T03:34:22.619Z,58.47
2016-06-03T03:35:22.621Z,58.28
2016-06-03T03:36:22.641Z,58.47
2016-06-03T03:37:22.642Z,58.47
2016-06-03T03:38:22.661Z,58.28
2016-06-03T03:39:22.664Z,58.57
2016-06-03T03:40:23.338Z,58.47
2016-06-03T03:41:22.685Z,58.57
2016-06-03T03:42:22.703Z,58.37
2016-06-03T03:43:22.721Z,58.28
2016-06-03T03:44:22.708Z,58.31
2016-06-03T03:45:22.727Z,58.47
2016-06-03T03:46:22.745Z,58.47
2016-06-03T03:47:22.748Z,58.57
2016-06-03T03:48:22.766Z,58.28
2016-06-03T03:49:22.769Z,58.09
2016-06-03T03:50:22.787Z,58.28
2016-06-03T03:51:22.806Z,58.47
2016-06-03T03:52:22.809Z,58.47
2016-06-03T03:53:22.827Z,58.47
2016-06-03T03:54:22.830Z,58.57
2016-06-03T03:55:22.832Z,58.37
2016-06-03T03:56:22.850Z,58.28
2016-06-03T03:57:22.852Z,58.37
2016-06-03T03:58:22.872Z,58.28
2016-06-03T03:59:22.889Z,58.47
2016-06-03T04:00:22.892Z,58.37
2016-06-03T04:01:22.895Z,58.47
2016-06-03T04:02:22.914Z,58.47
2016-06-03T04:03:22.916Z,58.47
2016-06-03T04:04:22.934Z,58.28
2016-06-03T04:05:22.780Z,58.28
2016-06-03T04:06:22.955Z,58.28
2016-06-03T04:07:22.957Z,58.47
2016-06-03T04:08:22.977Z,58.28
2016-06-03T04:09:22.979Z,58.28
2016-06-03T04:10:23.247Z,58.47
2016-06-03T04:11:23.015Z,58.28
2016-06-03T04:12:23.018Z,58.28
2016-06-03T04:13:23.021Z,58.37
2016-06-03T04:14:23.040Z,58.37
2016-06-03T04:15:23.042Z,58.28
2016-06-03T04:16:23.059Z,58.28
2016-06-03T04:17:23.062Z,58.28
2016-06-03T04:18:23.081Z,58.28
2016-06-03T04:19:23.084Z,58.37
2016-06-03T04:20:23.103Z,58.37
2016-06-03T04:21:23.105Z,58.28
2016-06-03T04:22:23.123Z,58.37
2016-06-03T04:23:23.126Z,58.37
2016-06-03T04:24:23.129Z,58.18
2016-06-03T04:25:23.147Z,58.47
2016-06-03T04:26:23.166Z,58.47
2016-06-03T04:27:23.168Z,58.47
2016-06-03T04:28:23.186Z,58.28
2016-06-03T04:29:23.205Z,58.47
2016-06-03T04:30:23.192Z,58.47
2016-06-03T04:31:23.210Z,58.28
2016-06-03T04:32:23.228Z,58.37
2016-06-03T04:33:23.231Z,58.47
2016-06-03T04:34:23.250Z,58.67
2016-06-03T04:35:23.252Z,58.28
2016-06-03T04:36:23.271Z,58.28
2016-06-03T04:37:23.116Z,58.37
2016-06-03T04:38:23.291Z,58.28
2016-06-03T04:39:23.293Z,58.67
2016-06-03T04:40:23.704Z,58.37
2016-06-03T04:41:23.315Z,58.47
2016-06-03T04:42:23.318Z,58.67
2016-06-03T04:43:23.336Z,58.47
2016-06-03T04:44:23.354Z,58.28
2016-06-03T04:45:23.357Z,58.47
2016-06-03T04:46:23.359Z,58.47
2016-06-03T04:47:23.379Z,58.47
2016-06-03T04:48:23.396Z,58.47
2016-06-03T04:49:23.398Z,58.67
2016-06-03T04:50:23.417Z,58.47
2016-06-03T04:51:23.436Z,58.67
2016-06-03T04:52:23.439Z,58.47
2016-06-03T04:53:23.441Z,58.57
2016-06-03T04:54:23.459Z,58.47
2016-06-03T04:55:23.494Z,58.57
2016-06-03T04:56:23.481Z,58.47
2016-06-03T04:57:23.483Z,58.57
2016-06-03T04:58:23.502Z,58.57
2016-06-03T04:59:23.505Z,58.57
2016-06-03T05:00:23.522Z,58.57
2016-06-03T05:01:23.524Z,58.47
2016-06-03T05:02:23.528Z,58.47
2016-06-03T05:03:23.546Z,58.57
2016-06-03T05:04:23.564Z,58.57
2016-06-03T05:05:23.566Z,58.67
2016-06-03T05:06:23.585Z,58.57
2016-06-03T05:07:23.588Z,58.57
2016-06-03T05:08:23.607Z,58.57
2016-06-03T05:09:23.609Z,58.57
2016-06-03T05:10:23.955Z,58.57
2016-06-03T05:11:23.630Z,58.67
2016-06-03T05:12:23.649Z,58.57
2016-06-03T05:13:23.651Z,58.57
2016-06-03T05:14:23.670Z,58.67
2016-06-03T05:15:23.673Z,58.57
2016-06-03T05:16:23.690Z,58.67
2016-06-03T05:17:23.708Z,58.57
2016-06-03T05:18:23.711Z,58.09
2016-06-03T05:19:23.714Z,58.37
2016-06-03T05:20:23.717Z,58.76
2016-06-03T05:21:23.734Z,58.37
2016-06-03T05:22:23.753Z,58.37
2016-06-03T05:23:23.756Z,58.28
2016-06-03T05:24:23.775Z,58.18
2016-06-03T05:25:23.886Z,58.28
2016-06-03T05:26:23.795Z,58.37
2016-06-03T05:27:23.798Z,58.28
2016-06-03T05:28:23.817Z,58.37
2016-06-03T05:29:23.819Z,58.37
2016-06-03T05:30:23.838Z,57.99
2016-06-03T05:31:23.841Z,57.99
2016-06-03T05:32:23.859Z,58.37
2016-06-03T05:33:23.860Z,58.31
2016-06-03T05:34:23.879Z,58.28
2016-06-03T05:35:23.882Z,57.99
2016-06-03T05:36:23.900Z,57.89
2016-06-03T05:37:23.934Z,57.99
2016-06-03T05:38:23.921Z,57.99
2016-06-03T05:39:23.924Z,58.09
2016-06-03T05:40:25.224Z,58.09
2016-06-03T05:41:23.945Z,58.18
2016-06-03T05:42:23.963Z,58.09
2016-06-03T05:43:23.966Z,58.28
2016-06-03T05:44:23.985Z,58.09
2016-06-03T05:45:23.987Z,58.18
2016-06-03T05:46:23.990Z,58.28
2016-06-03T05:47:24.055Z,58.18
2016-06-03T05:48:24.027Z,58.18
2016-06-03T05:49:24.029Z,58.21
2016-06-03T05:50:24.032Z,58.18
2016-06-03T05:51:24.051Z,58.18
2016-06-03T05:52:24.068Z,58.28
2016-06-03T05:53:24.070Z,58.09
2016-06-03T05:54:24.089Z,58.09
2016-06-03T05:55:24.545Z,58.18
2016-06-03T05:56:24.110Z,58.18
2016-06-03T05:57:24.113Z,58.18
2016-06-03T05:58:23.975Z,58.09
2016-06-03T05:59:24.134Z,58.09
2016-06-03T06:00:24.152Z,58.18
2016-06-03T06:01:24.171Z,58.18
2016-06-03T06:02:24.174Z,58.09
2016-06-03T06:03:24.177Z,58.18
2016-06-03T06:04:24.194Z,58.18
2016-06-03T06:05:24.197Z,58.18
2016-06-03T06:06:24.216Z,58.28
2016-06-03T06:07:24.219Z,58.28
2016-06-03T06:08:24.236Z,58.28
2016-06-03T06:09:24.239Z,58.21
2016-06-03T06:10:24.788Z,58.18
2016-06-03T06:11:24.261Z,58.09
2016-06-03T06:12:24.278Z,58.18
2016-06-03T06:13:24.281Z,58.31
2016-06-03T06:14:24.284Z,58.31
2016-06-03T06:15:24.302Z,58.28
2016-06-03T06:16:24.320Z,58.37
2016-06-03T06:17:24.323Z,58.28
2016-06-03T06:18:24.342Z,57.99
2016-06-03T06:19:24.345Z,57.99
2016-06-03T06:20:24.362Z,57.79
2016-06-03T06:21:24.365Z,58.09
2016-06-03T06:22:24.384Z,58.12
2016-06-03T06:23:24.387Z,58.02
2016-06-03T06:24:24.404Z,57.92
2016-06-03T06:25:24.407Z,57.63
2016-06-03T06:26:24.426Z,57.73
2016-06-03T06:27:24.429Z,57.54
2016-06-03T06:28:24.461Z,57.73
2016-06-03T06:29:24.464Z,57.54
2016-06-03T06:30:24.467Z,57.54
2016-06-03T06:31:24.470Z,57.54
2016-06-03T06:32:24.488Z,57.54
2016-06-03T06:33:24.507Z,57.54
2016-06-03T06:34:24.510Z,57.63
2016-06-03T06:35:24.513Z,57.44
2016-06-03T06:36:24.530Z,57.73
2016-06-03T06:37:24.533Z,57.34
2016-06-03T06:38:24.552Z,57.63
2016-06-03T06:39:24.554Z,57.73
2016-06-03T06:40:24.589Z,57.63
2016-06-03T06:41:24.607Z,57.44
2016-06-03T06:42:24.593Z,57.34
2016-06-03T06:43:24.612Z,57.44
2016-06-03T06:44:24.615Z,57.34
2016-06-03T06:45:24.632Z,57.44
2016-06-03T06:46:24.635Z,57.63
2016-06-03T06:47:24.975Z,57.54
2016-06-03T06:48:24.708Z,57.54
2016-06-03T06:49:24.582Z,57.24
2016-06-03T06:50:24.799Z,57.54
2016-06-03T06:51:24.829Z,57.24
2016-06-03T06:52:24.844Z,57.24
2016-06-03T06:53:24.872Z,57.34
2016-06-03T06:54:24.884Z,57.15
2016-06-03T06:55:24.913Z,57.05
2016-06-03T06:56:24.926Z,57.34
2016-06-03T06:57:24.932Z,57.05
2016-06-03T06:58:24.954Z,57.05
2016-06-03T06:59:24.976Z,57.15
2016-06-03T07:00:24.983Z,57.05
2016-06-03T07:01:25.004Z,57.44
2016-06-03T07:02:25.008Z,57.24
2016-06-03T07:03:25.028Z,57.44
2016-06-03T07:04:25.031Z,57.44
2016-06-03T07:05:25.035Z,57.44
2016-06-03T07:06:25.055Z,57.44
2016-06-03T07:07:25.073Z,57.54
2016-06-03T07:08:25.077Z,57.44
2016-06-03T07:09:25.097Z,57.54
2016-06-03T07:10:25.100Z,56.95
2016-06-03T07:11:25.119Z,57.44
2016-06-03T07:12:25.121Z,56.76
2016-06-03T07:13:25.124Z,56.86
2016-06-03T07:14:25.143Z,56.95
2016-06-03T07:15:25.145Z,57.18
2016-06-03T07:16:25.179Z,57.44
2016-06-03T07:17:25.181Z,56.79
2016-06-03T07:18:25.200Z,57.05
2016-06-03T07:19:25.187Z,57.08
2016-06-03T07:20:25.205Z,57.18
2016-06-03T07:21:25.208Z,57.54
2016-06-03T07:22:25.227Z,58.6
2016-06-03T07:23:25.230Z,58.31
2016-06-03T07:24:25.247Z,58.31
2016-06-03T07:25:25.267Z,59.38
2016-06-03T07:26:25.269Z,59.47
2016-06-03T07:27:25.287Z,59.66
2016-06-03T07:28:25.289Z,59.76
2016-06-03T07:29:25.308Z,59.28
2016-06-03T07:30:25.327Z,59.38
2016-06-03T07:31:25.330Z,59.56
2016-06-03T07:32:25.332Z,59.38
2016-06-03T07:33:25.350Z,59.28
2016-06-03T07:34:25.352Z,59.56
2016-06-03T07:35:25.371Z,59.38
2016-06-03T07:36:25.374Z,59.28
2016-06-03T07:37:25.377Z,59.28
2016-06-03T07:38:25.395Z,59.28
2016-06-03T07:39:25.398Z,59.18
2016-06-03T07:40:25.416Z,59.08
2016-06-03T07:41:25.435Z,59.38
2016-06-03T07:42:25.437Z,59.66
2016-06-03T07:43:25.439Z,59.66
2016-06-03T07:44:25.457Z,60.24
2016-06-03T07:45:25.460Z,60.14
2016-06-03T07:46:25.479Z,60.05
2016-06-03T07:47:25.497Z,59.76
2016-06-03T07:48:25.500Z,59.66
2016-06-03T07:49:25.518Z,59.47
2016-06-03T07:50:25.536Z,59.38
2016-06-03T07:51:25.523Z,59.56
2016-06-03T07:52:25.542Z,59.47
2016-06-03T07:53:25.560Z,59.66
2016-06-03T07:54:25.563Z,59.18
2016-06-03T07:55:26.347Z,59.28
2016-06-03T07:56:25.584Z,59.28
2016-06-03T07:57:25.602Z,59.38
2016-06-03T07:58:25.605Z,59.18
2016-06-03T07:59:25.638Z,59.38
2016-06-03T08:00:25.625Z,59.28
2016-06-03T08:01:25.644Z,58.89
2016-06-03T08:02:25.646Z,58.89
2016-06-03T08:03:25.666Z,59.21
2016-06-03T08:04:25.668Z,59.21
2016-06-03T08:05:25.671Z,58.72
2016-06-03T08:06:25.688Z,59.31
2016-06-03T08:07:25.691Z,59.31
2016-06-03T08:08:25.710Z,58.82
2016-06-03T08:09:25.728Z,58.72
2016-06-03T08:10:25.731Z,58.34
2016-06-03T08:11:25.734Z,59.18
2016-06-03T08:12:25.752Z,59.28
2016-06-03T08:13:25.770Z,58.98
2016-06-03T08:14:25.788Z,59.28
2016-06-03T08:15:25.791Z,58.6
2016-06-03T08:16:25.793Z,59.11
2016-06-03T08:17:25.812Z,59.21
2016-06-03T08:18:25.815Z,59.21
2016-06-03T08:19:25.833Z,58.63
2016-06-03T08:20:25.836Z,58.72
2016-06-03T08:21:25.854Z,58.53
2016-06-03T08:22:25.856Z,58.24
2016-06-03T08:23:25.859Z,58.44
2016-06-03T08:24:25.878Z,58.34
2016-06-03T08:25:26.006Z,58.44
2016-06-03T08:26:25.899Z,58.34
2016-06-03T08:27:25.902Z,58.53
2016-06-03T08:28:25.920Z,58.53
2016-06-03T08:29:25.938Z,59.21
2016-06-03T08:30:25.941Z,59.59
2016-06-03T08:31:25.959Z,59.47
2016-06-03T08:32:25.961Z,59.56
2016-06-03T08:33:25.964Z,59.47
2016-06-03T08:34:25.982Z,59.28
2016-06-03T08:35:25.986Z,59.28
2016-06-03T08:36:26.004Z,58.98
2016-06-03T08:37:26.007Z,59.28
2016-06-03T08:38:26.025Z,59.21
2016-06-03T08:39:26.043Z,59.11
2016-06-03T08:40:26.046Z,59.11
2016-06-03T08:41:25.907Z,59.21
2016-06-03T08:42:26.098Z,58.72
2016-06-03T08:43:26.085Z,59.11
2016-06-03T08:44:26.087Z,58.72
2016-06-03T08:45:26.107Z,59.5
2016-06-03T08:46:26.109Z,60.17
2016-06-03T08:47:26.126Z,59.95
2016-06-03T08:48:25.974Z,59.76
2016-06-03T08:49:26.148Z,59.47
2016-06-03T08:50:26.151Z,59.31
2016-06-03T08:51:26.170Z,59.79
2016-06-03T08:52:26.172Z,59.98
2016-06-03T08:53:26.189Z,60.37
2016-06-03T08:54:26.193Z,59.98
2016-06-03T08:55:26.211Z,59.89
2016-06-03T08:56:26.214Z,60.17
2016-06-03T08:57:26.233Z,59.98
2016-06-03T08:58:26.235Z,59.79
2016-06-03T08:59:26.253Z,59.31
2016-06-03T09:00:26.303Z,59.5
2016-06-03T09:01:26.274Z,59.31
2016-06-03T09:02:26.324Z,59.4
2016-06-03T09:03:26.295Z,59.31
2016-06-03T09:04:26.314Z,59.59
2016-06-03T09:05:26.317Z,59.5
2016-06-03T09:06:26.335Z,59.79
2016-06-03T09:07:26.337Z,59.69
2016-06-03T09:08:26.340Z,59.4
2016-06-03T09:09:26.358Z,59.79
2016-06-03T09:10:26.377Z,59.5
2016-06-03T09:11:26.395Z,59.31
2016-06-03T09:12:26.398Z,59.79
2016-06-03T09:13:26.416Z,59.4
2016-06-03T09:14:26.404Z,59.4
2016-06-03T09:15:26.421Z,59.5
2016-06-03T09:16:26.440Z,59.59
2016-06-03T09:17:26.458Z,59.69
2016-06-03T09:18:26.461Z,59.5
2016-06-03T09:19:26.463Z,59.63
2016-06-03T09:20:26.482Z,59.33
2016-06-03T09:21:26.484Z,59.33
2016-06-03T09:22:26.503Z,59.33
2016-06-03T09:23:26.506Z,59.33
2016-06-03T09:24:26.524Z,59.33
2016-06-03T09:25:26.542Z,59.4
2016-06-03T09:26:26.544Z,59.53
2016-06-03T09:27:26.548Z,59.33
2016-06-03T09:28:26.566Z,59.53
2016-06-03T09:29:26.568Z,59.23
2016-06-03T09:30:26.587Z,59.43
2016-06-03T09:31:26.589Z,59.53
2016-06-03T09:32:26.607Z,59.59
2016-06-03T09:33:26.641Z,59.53
2016-06-03T09:34:26.629Z,59.72
2016-06-03T09:35:26.647Z,59.43
2016-06-03T09:36:26.650Z,59.63
2016-06-03T09:37:26.668Z,59.23
2016-06-03T09:38:26.671Z,59.33
2016-06-03T09:39:26.689Z,59.53
2016-06-03T09:40:26.707Z,59.53
2016-06-03T09:41:26.710Z,59.23
2016-06-03T09:42:26.713Z,59.33
2016-06-03T09:43:26.732Z,59.53
2016-06-03T09:44:26.735Z,59.33
2016-06-03T09:45:26.752Z,59.05
2016-06-03T09:46:26.754Z,59.14
2016-06-03T09:47:26.774Z,59.14
2016-06-03T09:48:26.790Z,59.05
2016-06-03T09:49:26.794Z,59.14
2016-06-03T09:50:26.812Z,59.23
2016-06-03T09:51:26.815Z,58.78
2016-06-03T09:52:26.834Z,58.56
2016-06-03T09:53:26.836Z,58.56
2016-06-03T09:54:26.854Z,58.39
2016-06-03T09:55:27.014Z,58.88
2016-06-03T09:56:26.859Z,58.59
2016-06-03T09:57:26.878Z,58.78
2016-06-03T09:58:26.880Z,58.49
2016-06-03T09:59:26.899Z,58.88
2016-06-03T10:00:26.918Z,58.59
2016-06-03T10:01:26.920Z,58.59
2016-06-03T10:02:26.939Z,58.49
2016-06-03T10:03:26.941Z,58.69
2016-06-03T10:04:26.959Z,58.3
2016-06-03T10:05:26.961Z,58.39
2016-06-03T10:06:26.965Z,58.39
2016-06-03T10:07:26.983Z,57.94
2016-06-03T10:08:27.001Z,57.91
2016-06-03T10:09:27.005Z,57.91
2016-06-03T10:10:27.022Z,57.94
2016-06-03T10:11:27.041Z,58.49
2016-06-03T10:12:27.044Z,58.3
2016-06-03T10:13:27.046Z,57.91
2016-06-03T10:14:27.065Z,58.01
2016-06-03T10:15:27.082Z,58.04
2016-06-03T10:16:27.085Z,58.52
2016-06-03T10:17:27.104Z,58.33
2016-06-03T10:18:27.107Z,58.33
2016-06-03T10:19:27.124Z,58.23
2016-06-03T10:20:27.159Z,58.62
2016-06-03T10:21:27.146Z,58.33
2016-06-03T10:22:27.148Z,58.42
2016-06-03T10:23:27.167Z,58.42
2016-06-03T10:24:27.169Z,58.42
2016-06-03T10:25:27.187Z,58.42
2016-06-03T10:26:27.191Z,58.42
2016-06-03T10:27:27.209Z,58.52
2016-06-03T10:28:27.228Z,58.33
2016-06-03T10:29:27.230Z,58.52
2016-06-03T10:30:27.248Z,57.94
2016-06-03T10:31:27.251Z,58.14
2016-06-03T10:32:27.269Z,58.14
2016-06-03T10:33:27.272Z,58.14
2016-06-03T10:34:27.133Z,58.42
2016-06-03T10:35:27.308Z,58.14
2016-06-03T10:36:27.311Z,57.94
2016-06-03T10:37:27.313Z,57.94
2016-06-03T10:38:27.333Z,57.26
2016-06-03T10:39:27.350Z,57.84
2016-06-03T10:40:27.431Z,58.14
2016-06-03T10:41:27.387Z,58.42
2016-06-03T10:42:27.218Z,58.42
2016-06-03T10:43:27.393Z,58.04
2016-06-03T10:44:27.395Z,58.14
2016-06-03T10:45:27.413Z,57.94
2016-06-03T10:46:27.416Z,57.75
2016-06-03T10:47:27.435Z,57.75
2016-06-03T10:48:27.296Z,57.68
2016-06-03T10:49:27.455Z,57.65
2016-06-03T10:50:27.490Z,57.94
2016-06-03T10:51:27.477Z,57.94
2016-06-03T10:52:27.495Z,58.42
2016-06-03T10:53:27.497Z,58.42
2016-06-03T10:54:27.516Z,58.42
2016-06-03T10:55:27.550Z,58.33
2016-06-03T10:56:27.537Z,58.42
2016-06-03T10:57:27.556Z,58.42
2016-06-03T10:58:27.573Z,58.42
2016-06-03T10:59:27.576Z,58.42
2016-06-03T11:00:27.578Z,57.94
2016-06-03T11:01:27.597Z,58.04
2016-06-03T11:02:27.600Z,58.14
2016-06-03T11:03:27.618Z,58.14
2016-06-03T11:04:27.620Z,57.94
2016-06-03T11:05:27.639Z,57.75
2016-06-03T11:06:27.641Z,57.55
2016-06-03T11:07:27.675Z,57.84
2016-06-03T11:08:27.678Z,57.84
2016-06-03T11:09:27.681Z,57.94
2016-06-03T11:10:27.699Z,58.14
2016-06-03T11:11:27.702Z,58.04
2016-06-03T11:12:27.721Z,58.04
2016-06-03T11:13:27.723Z,58.04
2016-06-03T11:14:27.585Z,58.52
2016-06-03T11:15:27.743Z,58.04
2016-06-03T11:16:27.762Z,58.42
2016-06-03T11:17:27.780Z,58.33
2016-06-03T11:18:27.783Z,58.42
2016-06-03T11:19:27.802Z,57.94
2016-06-03T11:20:27.804Z,58.04
2016-06-03T11:21:27.823Z,58.04
2016-06-03T11:22:27.841Z,57.94
2016-06-03T11:23:27.843Z,58.04
2016-06-03T11:24:27.846Z,58.14
2016-06-03T11:25:27.880Z,58.14
2016-06-03T11:26:27.884Z,58.14
2016-06-03T11:27:27.887Z,58.14
2016-06-03T11:28:27.904Z,58.14
2016-06-03T11:29:27.923Z,58.23
2016-06-03T11:30:27.925Z,58.14
2016-06-03T11:31:27.928Z,58.14
2016-06-03T11:32:27.945Z,58.14
2016-06-03T11:33:27.948Z,58.23
2016-06-03T11:34:27.967Z,58.14
2016-06-03T11:35:27.970Z,57.94
2016-06-03T11:36:27.989Z,58.23
2016-06-03T11:37:28.006Z,57.94
2016-06-03T11:38:28.009Z,57.94
2016-06-03T11:39:28.028Z,58.04
2016-06-03T11:40:28.092Z,58.23
2016-06-03T11:41:28.049Z,58.14
2016-06-03T11:42:28.052Z,58.04
2016-06-03T11:43:28.069Z,58.14
2016-06-03T11:44:28.088Z,58.04
2016-06-03T11:45:28.090Z,58.04
2016-06-03T11:46:27.952Z,57.94
2016-06-03T11:47:28.111Z,58.04
2016-06-03T11:48:28.130Z,58.14
2016-06-03T11:49:28.133Z,58.14
2016-06-03T11:50:28.151Z,58.14
2016-06-03T11:51:28.169Z,58.23
2016-06-03T11:52:28.171Z,57.94
2016-06-03T11:53:28.190Z,58.04
2016-06-03T11:54:28.208Z,58.04
2016-06-03T11:55:28.195Z,57.94
2016-06-03T11:56:28.214Z,58.14
2016-06-03T11:57:28.217Z,57.84
2016-06-03T11:58:28.235Z,57.94
2016-06-03T11:59:28.253Z,58.04
2016-06-03T12:00:28.256Z,57.91
2016-06-03T12:01:28.274Z,58.14
2016-06-03T12:02:28.276Z,58.23
2016-06-03T12:03:28.295Z,57.94
2016-06-03T12:04:28.297Z,57.94
2016-06-03T12:05:28.317Z,57.81
2016-06-03T12:06:28.319Z,57.94
2016-06-03T12:07:28.352Z,57.94
2016-06-03T12:08:28.355Z,57.84
2016-06-03T12:09:28.358Z,57.94
2016-06-03T12:10:28.438Z,57.94
2016-06-03T12:11:28.395Z,58.14
2016-06-03T12:12:28.397Z,58.04
2016-06-03T12:13:28.400Z,57.94
2016-06-03T12:14:28.419Z,57.94
2016-06-03T12:15:28.421Z,58.04
2016-06-03T12:16:28.439Z,57.94
2016-06-03T12:17:28.457Z,58.01
2016-06-03T12:18:28.461Z,58.04
2016-06-03T12:19:28.479Z,57.94
2016-06-03T12:20:28.482Z,57.81
2016-06-03T12:21:28.499Z,57.81
2016-06-03T12:22:28.502Z,58.04
2016-06-03T12:23:28.521Z,58.01
2016-06-03T12:24:28.524Z,57.94
2016-06-03T12:25:28.698Z,57.65
2016-06-03T12:26:28.545Z,58.01
2016-06-03T12:27:28.562Z,57.62
2016-06-03T12:28:28.565Z,57.75
2016-06-03T12:29:28.584Z,58.04
2016-06-03T12:30:28.602Z,57.81
2016-06-03T12:31:28.604Z,58.04
2016-06-03T12:32:28.623Z,57.94
2016-06-03T12:33:28.642Z,57.71
2016-06-03T12:34:28.645Z,57.65
2016-06-03T12:35:28.647Z,57.62
2016-06-03T12:36:28.665Z,57.62
2016-06-03T12:37:28.683Z,57.91
2016-06-03T12:38:28.686Z,57.75
2016-06-03T12:39:28.689Z,57.84
2016-06-03T12:40:28.707Z,57.62
2016-06-03T12:41:28.725Z,57.62
2016-06-03T12:42:28.728Z,57.65
2016-06-03T12:43:28.747Z,57.65
2016-06-03T12:44:28.764Z,57.62
2016-06-03T12:45:28.767Z,57.71
2016-06-03T12:46:28.802Z,57.65
2016-06-03T12:47:28.788Z,57.62
2016-06-03T12:48:28.791Z,57.65
2016-06-03T12:49:28.825Z,57.62
2016-06-03T12:50:28.812Z,57.62
2016-06-03T12:51:28.830Z,57.71
2016-06-03T12:52:28.693Z,57.53
2016-06-03T12:53:28.851Z,57.65
2016-06-03T12:54:28.870Z,57.81
2016-06-03T12:55:28.887Z,57.33